createdAt,value
2023-07-04T00:01:07.642Z,6.60
2023-07-04T00:03:35.460Z,6.75
2023-07-04T00:06:02.945Z,7.55
2023-07-04T00:08:35.068Z,8.07
2023-07-04T00:11:05.426Z,7.22
2023-07-04T00:13:34.200Z,7.95
2023-07-04T00:16:02.065Z,8.30
2023-07-04T00:18:29.958Z,8.15
2023-07-04T00:21:05.351Z,8.63
2023-07-04T00:23:36.934Z,8.25
2023-07-04T00:26:07.562Z,7.75
2023-07-04T00:28:39.833Z,9.07
2023-07-04T00:31:08.919Z,8.93
2023-07-04T00:33:36.746Z,8.68
2023-07-04T00:36:05.500Z,8.73
2023-07-04T00:38:36.599Z,9.25
2023-07-04T00:41:14.493Z,8.32
2023-07-04T00:44:10.231Z,9.82
2023-07-04T00:47:28.027Z,8.93
2023-07-04T00:50:04.003Z,8.63
2023-07-04T00:52:34.779Z,8.07
2023-07-04T00:55:06.380Z,7.00
2023-07-04T00:57:38.543Z,7.25
2023-07-04T01:00:21.040Z,7.25
2023-07-04T01:02:51.071Z,7.60
2023-07-04T01:05:41.453Z,7.18
2023-07-04T01:08:19.405Z,6.95
2023-07-04T01:10:52.676Z,6.50
2023-07-04T01:13:44.670Z,6.20
2023-07-04T01:16:18.549Z,5.78
2023-07-04T01:18:51.696Z,5.28
2023-07-04T01:21:21.864Z,4.60
2023-07-04T01:24:10.715Z,4.53
2023-07-04T01:26:44.951Z,3.97
2023-07-04T01:29:16.025Z,2.95
2023-07-04T01:31:45.383Z,2.90
2023-07-04T01:34:14.598Z,2.30
2023-07-04T01:36:43.458Z,2.00
2023-07-04T01:39:22.394Z,1.98
2023-07-04T01:41:51.073Z,2.03
2023-07-04T01:44:18.855Z,1.75
2023-07-04T01:46:46.335Z,1.65
2023-07-04T01:49:18.090Z,1.20
2023-07-04T01:51:45.356Z,1.30
2023-07-04T01:54:18.592Z,1.65
2023-07-04T01:56:53.991Z,1.38
2023-07-04T01:59:21.933Z,1.77
2023-07-04T02:01:50.281Z,1.10
2023-07-04T02:04:18.383Z,1.20
2023-07-04T02:06:45.578Z,1.20
2023-07-04T02:09:12.824Z,1.70
2023-07-04T02:11:40.221Z,1.35
2023-07-04T02:14:07.635Z,1.40
2023-07-04T02:16:34.894Z,1.40
2023-07-04T02:19:02.162Z,1.20
2023-07-04T02:21:29.391Z,1.50
2023-07-04T02:23:58.269Z,1.45
2023-07-04T02:26:25.380Z,1.50
2023-07-04T02:28:52.530Z,1.52
2023-07-04T02:31:20.737Z,1.17
2023-07-04T02:33:51.655Z,1.42
2023-07-04T02:36:23.911Z,1.42
2023-07-04T02:38:51.238Z,1.20
2023-07-04T02:41:21.971Z,1.48
2023-07-04T02:43:49.323Z,1.63
2023-07-04T02:46:16.963Z,1.35
2023-07-04T02:48:45.039Z,1.27
2023-07-04T02:51:12.551Z,1.30
2023-07-04T02:53:39.788Z,1.38
2023-07-04T02:56:07.937Z,1.88
2023-07-04T02:58:35.786Z,1.58
2023-07-04T03:01:05.850Z,1.50
2023-07-04T03:03:36.181Z,2.35
2023-07-04T03:06:06.240Z,1.38
2023-07-04T03:08:33.619Z,1.30
2023-07-04T03:11:01.047Z,1.30
2023-07-04T03:13:28.678Z,1.48
2023-07-04T03:15:56.543Z,1.40
2023-07-04T03:18:24.067Z,2.00
2023-07-04T03:20:52.088Z,1.70
2023-07-04T03:23:19.930Z,2.10
2023-07-04T03:25:49.620Z,1.80
2023-07-04T03:28:17.064Z,1.52
2023-07-04T03:30:47.665Z,2.00
2023-07-04T03:33:15.381Z,1.60
2023-07-04T03:35:57.313Z,1.42
2023-07-04T03:38:30.511Z,1.92
2023-07-04T03:41:00.658Z,1.92
2023-07-04T03:43:29.619Z,2.00
2023-07-04T03:45:56.891Z,1.75
2023-07-04T03:48:25.240Z,2.50
2023-07-04T03:50:55.563Z,2.10
2023-07-04T03:53:25.939Z,2.15
2023-07-04T03:55:52.997Z,2.72
2023-07-04T03:58:20.907Z,2.85
2023-07-04T04:00:52.404Z,2.30
2023-07-04T04:03:19.972Z,2.40
2023-07-04T04:05:50.558Z,3.33
2023-07-04T04:08:18.600Z,2.78
2023-07-04T04:10:46.183Z,3.10
2023-07-04T04:13:16.294Z,3.63
2023-07-04T04:15:50.130Z,3.20
2023-07-04T04:18:20.371Z,3.33
2023-07-04T04:20:47.758Z,3.50
2023-07-04T04:23:16.504Z,3.05
2023-07-04T04:25:49.351Z,3.22
2023-07-04T04:28:16.693Z,4.22
2023-07-04T04:30:49.098Z,7.00
2023-07-04T04:33:19.537Z,5.43
2023-07-04T04:35:46.922Z,9.85
2023-07-04T04:38:16.643Z,4.20
2023-07-04T04:40:45.295Z,4.93
2023-07-04T04:43:12.431Z,10.90
2023-07-04T04:45:40.070Z,6.43
2023-07-04T04:48:07.690Z,6.85
2023-07-04T04:50:36.899Z,7.88
2023-07-04T04:53:04.304Z,11.77
2023-07-04T04:55:31.636Z,10.60
2023-07-04T04:57:58.775Z,5.88
2023-07-04T05:00:25.839Z,6.05
2023-07-04T05:02:56.381Z,12.05
2023-07-04T05:05:24.119Z,8.60
2023-07-04T05:07:51.530Z,9.23
2023-07-04T05:10:18.897Z,7.20
2023-07-04T05:12:46.046Z,11.30
2023-07-04T05:15:13.221Z,8.65
2023-07-04T05:17:40.523Z,6.80
2023-07-04T05:20:08.166Z,6.18
2023-07-04T05:22:35.451Z,4.43
2023-07-04T05:25:02.761Z,6.97
2023-07-04T05:27:29.875Z,6.65
2023-07-04T05:29:57.057Z,5.38
2023-07-04T05:32:24.311Z,6.05
2023-07-04T05:34:51.526Z,7.90
2023-07-04T05:37:18.795Z,10.93
2023-07-04T05:39:46.220Z,7.55
2023-07-04T05:42:13.696Z,10.05
2023-07-04T05:44:41.204Z,7.00
2023-07-04T05:47:08.949Z,7.78
2023-07-04T05:49:36.645Z,7.95
2023-07-04T05:52:04.566Z,13.40
2023-07-04T05:54:32.185Z,13.05
2023-07-04T05:56:59.698Z,15.15
2023-07-04T05:59:26.890Z,25.70
2023-07-04T06:01:54.610Z,14.77
2023-07-04T06:04:21.862Z,10.85
2023-07-04T06:06:54.420Z,5.15
2023-07-04T06:09:22.415Z,4.22
2023-07-04T06:11:49.982Z,4.70
2023-07-04T06:14:18.874Z,7.80
2023-07-04T06:16:46.312Z,7.10
2023-07-04T06:19:14.195Z,4.35
2023-07-04T06:21:44.402Z,6.57
2023-07-04T06:24:15.175Z,9.93
2023-07-04T06:26:42.438Z,7.70
2023-07-04T06:29:09.727Z,13.65
2023-07-04T06:31:38.224Z,14.48
2023-07-04T06:34:08.450Z,8.20
2023-07-04T06:36:35.772Z,4.38
2023-07-04T06:39:03.134Z,4.43
2023-07-04T06:41:30.628Z,4.28
2023-07-04T06:43:57.701Z,2.80
2023-07-04T06:46:25.338Z,3.55
2023-07-04T06:48:53.518Z,2.80
2023-07-04T06:51:21.519Z,2.47
2023-07-04T06:53:49.470Z,2.63
2023-07-04T06:56:19.462Z,2.28
2023-07-04T06:58:51.791Z,2.28
2023-07-04T07:01:20.870Z,4.60
2023-07-04T07:03:49.917Z,6.82
2023-07-04T07:06:18.609Z,4.50
2023-07-04T07:08:45.968Z,8.55
2023-07-04T07:11:19.121Z,12.55
2023-07-04T07:13:48.167Z,8.85
2023-07-04T07:16:23.337Z,4.45
2023-07-04T07:18:52.206Z,11.43
2023-07-04T07:21:21.926Z,8.07
2023-07-04T07:23:53.302Z,6.15
2023-07-04T07:26:26.857Z,6.55
2023-07-04T07:31:32.706Z,7.97
2023-07-04T07:34:01.736Z,3.40
2023-07-04T07:36:34.495Z,2.58
2023-07-04T07:39:04.113Z,2.10
2023-07-04T07:41:34.125Z,2.10
2023-07-04T07:44:01.914Z,1.73
2023-07-04T07:46:29.393Z,1.70
2023-07-04T07:48:57.646Z,4.05
2023-07-04T07:51:25.581Z,9.05
2023-07-04T07:53:54.638Z,12.80
2023-07-04T07:56:23.955Z,5.80
2023-07-04T07:58:52.000Z,5.90
2023-07-04T08:01:24.466Z,1.50
2023-07-04T08:03:51.880Z,2.30
2023-07-04T08:06:31.112Z,1.67
2023-07-04T08:08:59.765Z,1.60
2023-07-04T08:11:29.058Z,1.30
2023-07-04T08:13:57.627Z,2.45
2023-07-04T08:16:30.900Z,2.17
2023-07-04T08:19:00.828Z,2.72
2023-07-04T08:21:29.352Z,1.42
2023-07-04T08:23:56.945Z,2.67
2023-07-04T08:26:26.138Z,3.08
2023-07-04T08:28:55.272Z,2.47
2023-07-04T08:31:23.539Z,2.03
2023-07-04T08:33:51.035Z,2.30
2023-07-04T08:36:19.434Z,2.83
2023-07-04T08:38:52.109Z,2.17
2023-07-04T08:41:44.082Z,2.65
2023-07-04T08:44:36.592Z,2.83
2023-07-04T08:47:04.521Z,2.45
2023-07-04T08:49:31.821Z,3.53
2023-07-04T08:52:08.378Z,2.75
2023-07-04T08:54:36.677Z,4.07
2023-07-04T08:57:21.001Z,2.92
2023-07-04T08:59:53.789Z,2.45
2023-07-04T09:02:34.146Z,3.20
2023-07-04T09:05:49.453Z,2.42
2023-07-04T09:08:47.676Z,1.98
2023-07-04T09:11:17.446Z,2.13
2023-07-04T09:13:57.576Z,2.10
2023-07-04T09:16:41.338Z,2.50
2023-07-04T09:19:11.492Z,1.83
2023-07-04T09:21:38.883Z,2.15
2023-07-04T09:24:06.654Z,2.53
2023-07-04T09:26:41.183Z,2.00
2023-07-04T09:29:08.850Z,1.63
2023-07-04T09:31:44.086Z,1.02
2023-07-04T09:34:14.543Z,1.48
2023-07-04T09:36:42.010Z,1.30
2023-07-04T09:39:10.424Z,1.48
2023-07-04T09:41:54.948Z,1.65
2023-07-04T09:44:29.079Z,1.92
2023-07-04T09:47:00.632Z,1.50
2023-07-04T09:49:32.836Z,1.92
2023-07-04T09:52:10.726Z,0.95
2023-07-04T09:54:40.299Z,1.27
2023-07-04T09:57:25.275Z,1.25
2023-07-04T09:59:55.038Z,1.10
2023-07-04T10:02:25.679Z,3.42
2023-07-04T10:04:54.492Z,1.30
2023-07-04T10:07:24.900Z,1.73
2023-07-04T10:09:56.385Z,2.65
2023-07-04T10:14:57.479Z,3.95
2023-07-04T10:17:34.691Z,0.90
2023-07-04T10:20:10.839Z,4.78
2023-07-04T10:22:40.738Z,1.80
2023-07-04T10:25:20.830Z,2.50
2023-07-04T10:27:55.203Z,1.88
2023-07-04T10:30:31.350Z,2.58
2023-07-04T10:33:06.743Z,2.22
2023-07-04T10:35:37.939Z,2.67
2023-07-04T10:38:10.733Z,4.45
2023-07-04T10:40:40.741Z,3.58
2023-07-04T10:43:13.785Z,4.18
2023-07-04T10:45:56.173Z,1.17
2023-07-04T10:48:31.710Z,1.60
2023-07-04T10:51:08.313Z,1.98
2023-07-04T10:53:35.626Z,1.98
2023-07-04T10:56:06.990Z,3.97
2023-07-04T11:01:04.946Z,16.13
2023-07-04T11:03:45.001Z,10.65
2023-07-04T11:06:47.412Z,13.93
2023-07-04T11:09:16.699Z,1.20
2023-07-04T11:11:50.564Z,3.65
2023-07-04T11:14:28.553Z,19.85
2023-07-04T11:16:56.363Z,18.50
2023-07-04T11:19:29.375Z,4.60
2023-07-04T11:22:04.096Z,5.63
2023-07-04T11:24:36.897Z,14.23
2023-07-04T11:27:22.273Z,8.25
2023-07-04T11:29:59.240Z,14.77
2023-07-04T11:32:38.656Z,2.50
2023-07-04T11:35:11.824Z,1.70
2023-07-04T11:37:52.932Z,2.85
2023-07-04T11:40:55.643Z,6.00
2023-07-04T11:43:28.662Z,2.97
2023-07-04T11:45:57.585Z,3.25
2023-07-04T11:48:29.253Z,4.22
2023-07-04T11:51:07.945Z,6.65
2023-07-04T11:53:44.885Z,3.03
2023-07-04T11:56:17.434Z,5.00
2023-07-04T11:58:46.374Z,2.55
2023-07-04T12:01:16.010Z,14.20
2023-07-04T12:03:48.045Z,6.03
2023-07-04T12:06:49.681Z,7.60
2023-07-04T12:09:30.962Z,2.33
2023-07-04T12:11:59.776Z,2.08
2023-07-04T12:14:27.057Z,3.17
2023-07-04T12:16:58.706Z,2.17
2023-07-04T12:19:26.246Z,10.32
2023-07-04T12:21:53.834Z,9.90
2023-07-04T12:24:23.824Z,5.78
2023-07-04T12:27:10.031Z,3.33
2023-07-04T12:30:02.945Z,5.85
2023-07-04T12:32:37.454Z,4.97
2023-07-04T12:37:41.465Z,4.68
2023-07-04T12:40:17.458Z,1.50
2023-07-04T12:42:45.511Z,1.88
2023-07-04T12:45:23.616Z,1.40
2023-07-04T12:50:23.928Z,1.23
2023-07-04T12:52:52.504Z,1.10
2023-07-04T12:55:30.619Z,1.38
2023-07-04T12:58:00.146Z,1.40
2023-07-04T13:00:37.711Z,1.20
2023-07-04T13:03:11.670Z,1.20
2023-07-04T13:05:50.827Z,1.00
2023-07-04T13:08:30.909Z,1.02
2023-07-04T13:11:00.063Z,1.15
2023-07-04T13:13:39.133Z,1.08
2023-07-04T13:16:32.231Z,1.10
2023-07-04T13:19:17.720Z,1.17
2023-07-04T13:21:50.283Z,0.88
2023-07-04T13:27:15.425Z,1.15
2023-07-04T13:35:35.889Z,1.50
2023-07-04T13:40:37.164Z,1.10
2023-07-04T13:45:44.443Z,1.05
2023-07-04T13:48:12.375Z,0.70
2023-07-04T13:50:39.851Z,0.75
2023-07-04T13:55:39.718Z,1.00
2023-07-04T13:58:07.104Z,0.73
2023-07-04T14:00:54.094Z,0.80
2023-07-04T14:05:57.545Z,0.80
2023-07-04T14:08:30.785Z,0.75
2023-07-04T14:11:05.026Z,0.68
2023-07-04T14:13:33.044Z,0.90
2023-07-04T14:21:09.662Z,3.47
2023-07-04T14:23:37.152Z,3.10
2023-07-04T14:26:04.684Z,4.40
2023-07-04T14:28:31.889Z,4.93
2023-07-04T14:30:59.432Z,6.93
2023-07-04T14:33:26.891Z,2.97
2023-07-04T14:35:53.989Z,0.70
2023-07-04T14:38:21.223Z,1.35
2023-07-04T14:43:19.334Z,3.67
2023-07-04T14:46:00.019Z,0.60
2023-07-04T14:48:27.382Z,2.40
2023-07-04T14:51:20.780Z,3.55
2023-07-04T14:53:48.358Z,2.03
2023-07-04T14:56:17.252Z,6.40
2023-07-04T14:58:44.723Z,3.22
2023-07-04T15:01:24.454Z,5.68
2023-07-04T15:03:57.107Z,2.20
2023-07-04T15:06:26.479Z,6.45
2023-07-04T15:08:57.882Z,11.95
2023-07-04T15:11:25.356Z,6.82
2023-07-04T15:13:52.549Z,0.80
2023-07-04T15:16:19.930Z,6.80
2023-07-04T15:18:49.277Z,0.90
2023-07-04T15:21:17.268Z,1.48
2023-07-04T15:23:44.476Z,0.80
2023-07-04T15:28:43.869Z,0.90
2023-07-04T15:31:11.244Z,1.10
2023-07-04T15:33:38.666Z,1.42
2023-07-04T15:36:06.353Z,1.92
2023-07-04T15:38:34.504Z,1.48
2023-07-04T15:41:03.761Z,2.17
2023-07-04T15:43:33.725Z,2.85
2023-07-04T15:46:04.278Z,2.50
2023-07-04T15:48:32.150Z,2.17
2023-07-04T15:50:59.454Z,1.20
2023-07-04T15:53:28.338Z,1.02
2023-07-04T15:56:07.714Z,1.15
2023-07-04T15:58:35.961Z,0.90
2023-07-04T16:01:05.684Z,1.27
2023-07-04T16:03:34.699Z,1.33
2023-07-04T16:06:05.409Z,1.70
2023-07-04T16:08:34.429Z,1.35
2023-07-04T16:11:05.144Z,1.20
2023-07-04T16:13:32.608Z,0.88
2023-07-04T16:16:00.088Z,0.80
2023-07-04T16:18:28.322Z,1.13
2023-07-04T16:20:56.649Z,0.95
2023-07-04T16:23:24.076Z,0.80
2023-07-04T16:25:54.683Z,0.88
2023-07-04T16:28:24.518Z,0.80
2023-07-04T16:30:57.246Z,0.93
2023-07-04T16:33:24.966Z,0.90
2023-07-04T16:35:53.057Z,1.10
2023-07-04T16:38:24.470Z,0.77
2023-07-04T16:40:54.373Z,0.80
2023-07-04T16:43:23.102Z,1.02
2023-07-04T16:45:52.853Z,1.10
2023-07-04T16:48:20.310Z,0.70
2023-07-04T16:50:48.689Z,1.60
2023-07-04T16:53:16.249Z,1.20
2023-07-04T16:55:45.656Z,0.80
2023-07-04T16:58:15.965Z,1.20
2023-07-04T17:00:43.230Z,0.98
2023-07-04T17:03:11.794Z,1.08
2023-07-04T17:05:39.638Z,0.95
2023-07-04T17:08:06.998Z,0.93
2023-07-04T17:10:34.460Z,5.72
2023-07-04T17:13:05.159Z,0.88
2023-07-04T17:15:32.529Z,1.52
2023-07-04T17:18:04.350Z,1.00
2023-07-04T17:20:31.813Z,1.25
2023-07-04T17:23:02.449Z,1.23
2023-07-04T17:25:29.720Z,1.08
2023-07-04T17:27:58.671Z,1.30
2023-07-04T17:30:26.354Z,1.08
2023-07-04T17:32:53.443Z,0.93
2023-07-04T17:35:20.742Z,1.55
2023-07-04T17:37:49.362Z,1.20
2023-07-04T17:40:21.116Z,1.00
2023-07-04T17:42:49.007Z,1.40
2023-07-04T17:45:17.635Z,2.45
2023-07-04T17:47:45.200Z,1.23
2023-07-04T17:50:12.298Z,0.90
2023-07-04T17:52:39.745Z,0.98
2023-07-04T17:55:10.696Z,1.40
2023-07-04T17:57:38.450Z,1.42
2023-07-04T18:00:06.959Z,0.93
2023-07-04T18:02:34.728Z,1.00
2023-07-04T18:05:01.974Z,1.15
2023-07-04T18:07:29.587Z,1.17
2023-07-04T18:09:57.090Z,0.80
2023-07-04T18:12:28.367Z,1.02
2023-07-04T18:14:56.382Z,0.90
2023-07-04T18:17:23.826Z,1.40
2023-07-04T18:19:57.911Z,1.20
2023-07-04T18:22:26.740Z,1.02
2023-07-04T18:24:55.068Z,1.08
2023-07-04T18:27:22.665Z,1.08
2023-07-04T18:29:53.183Z,1.33
2023-07-04T18:32:21.751Z,1.30
2023-07-04T18:34:48.906Z,1.58
2023-07-04T18:37:16.569Z,1.48
2023-07-04T18:39:44.073Z,1.50
2023-07-04T18:42:11.295Z,1.10
2023-07-04T18:44:39.631Z,1.50
2023-07-04T18:47:07.248Z,1.60
2023-07-04T18:49:34.490Z,1.40
2023-07-04T18:52:01.539Z,2.38
2023-07-04T18:54:31.967Z,1.60
2023-07-04T18:56:59.371Z,1.42
2023-07-04T18:59:26.531Z,1.15
2023-07-04T19:01:55.479Z,1.42
2023-07-04T19:04:23.321Z,1.70
2023-07-04T19:06:51.202Z,1.52
2023-07-04T19:09:18.840Z,1.70
2023-07-04T19:11:47.631Z,1.70
2023-07-04T19:14:17.939Z,1.52
2023-07-04T19:16:53.674Z,1.98
2023-07-04T19:19:45.249Z,1.42
2023-07-04T19:22:12.551Z,2.05
2023-07-04T19:24:40.913Z,1.73
2023-07-04T19:27:10.932Z,2.20
2023-07-04T19:29:38.501Z,2.38
2023-07-04T19:32:06.277Z,2.42
2023-07-04T19:34:34.680Z,2.45
2023-07-04T19:37:03.500Z,2.35
2023-07-04T19:39:33.712Z,2.47
2023-07-04T19:42:02.211Z,2.33
2023-07-04T19:44:29.521Z,2.17
2023-07-04T19:46:57.037Z,2.95
2023-07-04T19:49:24.610Z,2.33
2023-07-04T19:51:51.712Z,3.15
2023-07-04T19:54:19.387Z,2.92
2023-07-04T19:56:46.814Z,3.13
2023-07-04T19:59:14.583Z,3.13
2023-07-04T20:01:41.759Z,3.22
2023-07-04T20:04:08.885Z,2.30
2023-07-04T20:06:39.805Z,2.50
2023-07-04T20:09:09.767Z,2.20
2023-07-04T20:11:37.569Z,2.15
2023-07-04T20:14:06.161Z,2.03
2023-07-04T20:16:33.585Z,2.35
2023-07-04T20:19:01.079Z,1.88
2023-07-04T20:21:28.867Z,1.80
2023-07-04T20:23:56.494Z,2.10
2023-07-04T20:26:24.305Z,2.40
2023-07-04T20:28:51.482Z,2.40
2023-07-04T20:31:19.586Z,1.70
2023-07-04T20:33:46.802Z,2.15
2023-07-04T20:36:14.073Z,2.83
2023-07-04T20:38:42.049Z,2.40
2023-07-04T20:41:10.983Z,2.15
2023-07-04T20:43:38.178Z,2.13
2023-07-04T20:46:05.912Z,2.30
2023-07-04T20:48:33.679Z,1.95
2023-07-04T20:51:06.668Z,2.20
2023-07-04T20:53:35.538Z,1.50
2023-07-04T20:56:03.934Z,1.65
2023-07-04T20:58:31.279Z,1.58
2023-07-04T21:00:59.169Z,2.05
2023-07-04T21:03:27.156Z,1.98
2023-07-04T21:05:54.782Z,2.38
2023-07-04T21:08:24.300Z,2.03
2023-07-04T21:11:02.804Z,2.03
2023-07-04T21:13:33.991Z,2.00
2023-07-04T21:16:05.246Z,1.67
2023-07-04T21:18:32.592Z,2.38
2023-07-04T21:21:00.329Z,2.03
2023-07-04T21:23:27.513Z,1.75
2023-07-04T21:26:00.423Z,1.98
2023-07-04T21:28:33.297Z,2.03
2023-07-04T21:31:10.845Z,2.22
2023-07-04T21:33:40.410Z,1.80
2023-07-04T21:36:08.369Z,1.95
2023-07-04T21:38:38.299Z,1.80
2023-07-04T21:41:06.910Z,2.05
2023-07-04T21:43:34.096Z,1.80
2023-07-04T21:46:04.223Z,1.90
2023-07-04T21:48:33.176Z,2.22
2023-07-04T21:51:02.373Z,1.88
2023-07-04T21:53:29.602Z,2.40
2023-07-04T21:55:56.935Z,2.28
2023-07-04T21:58:25.014Z,2.10
2023-07-04T22:00:53.063Z,2.00
2023-07-04T22:03:21.266Z,2.20
2023-07-04T22:05:48.869Z,2.13
2023-07-04T22:08:19.307Z,2.53
2023-07-04T22:10:56.893Z,3.47
2023-07-04T22:13:26.179Z,2.55
2023-07-04T22:15:53.968Z,2.33
2023-07-04T22:18:21.462Z,2.50
2023-07-04T22:20:48.783Z,2.85
2023-07-04T22:23:15.970Z,2.35
2023-07-04T22:25:43.441Z,2.50
2023-07-04T22:28:10.674Z,2.45
2023-07-04T22:30:38.116Z,2.50
2023-07-04T22:33:06.043Z,2.33
2023-07-04T22:35:33.202Z,2.40
2023-07-04T22:38:00.297Z,2.70
2023-07-04T22:40:27.777Z,2.60
2023-07-04T22:42:54.869Z,3.00
2023-07-04T22:45:22.347Z,2.90
2023-07-04T22:47:49.948Z,2.35
2023-07-04T22:50:17.366Z,2.90
2023-07-04T22:52:44.492Z,2.35
2023-07-04T22:55:11.760Z,2.40
2023-07-04T22:57:39.009Z,2.80
2023-07-04T23:00:07.257Z,2.50
2023-07-04T23:02:34.399Z,3.05
2023-07-04T23:05:02.551Z,2.70
2023-07-04T23:07:29.914Z,3.30
2023-07-04T23:09:57.638Z,6.95
2023-07-04T23:12:25.914Z,7.38
2023-07-04T23:14:53.184Z,6.78
2023-07-04T23:17:21.419Z,6.50
2023-07-04T23:19:49.068Z,3.28
2023-07-04T23:22:16.544Z,2.88
2023-07-04T23:24:44.340Z,3.20
2023-07-04T23:27:11.552Z,2.78
2023-07-04T23:29:38.657Z,2.92
2023-07-04T23:32:06.545Z,3.60
2023-07-04T23:34:33.710Z,2.88
2023-07-04T23:37:01.062Z,3.00
2023-07-04T23:39:28.205Z,3.17
2023-07-04T23:41:55.368Z,3.28
2023-07-04T23:44:22.525Z,3.30
2023-07-04T23:46:49.713Z,2.97
2023-07-04T23:49:17.145Z,3.25
2023-07-04T23:51:44.384Z,3.60
2023-07-04T23:54:12.256Z,2.83
2023-07-04T23:56:39.769Z,3.15
2023-07-04T23:59:06.859Z,3.30
